sensor_id;sensor_type;location;lat;lon;timestamp;P1;durP1;ratioP1;P2;durP2;ratioP2
55815;SDS011;41744;52.404;16.942;2023-01-01T00:01:20;27.92;;;12.25;;
55815;SDS011;41744;52.404;16.942;2023-01-01T00:03:53;24.88;;;11.15;;
55815;SDS011;41744;52.404;16.942;2023-01-01T00:06:19;19.88;;;9.38;;
55815;SDS011;41744;52.404;16.942;2023-01-01T00:08:46;22.35;;;9.65;;
55815;SDS011;41744;52.404;16.942;2023-01-01T00:11:12;21.95;;;10.25;;
55815;SDS011;41744;52.404;16.942;2023-01-01T00:13:39;19.20;;;9.70;;
55815;SDS011;41744;52.404;16.942;2023-01-01T00:16:09;21.50;;;9.35;;
55815;SDS011;41744;52.404;16.942;2023-01-01T00:18:36;19.20;;;9.32;;
55815;SDS011;41744;52.404;16.942;2023-01-01T00:23:29;16.45;;;7.78;;
55815;SDS011;41744;52.404;16.942;2023-01-01T00:25:55;15.02;;;7.53;;
55815;SDS011;41744;52.404;16.942;2023-01-01T00:28:21;14.27;;;7.22;;
55815;SDS011;41744;52.404;16.942;2023-01-01T00:30:47;13.30;;;6.93;;
55815;SDS011;41744;52.404;16.942;2023-01-01T00:33:13;15.32;;;6.18;;
55815;SDS011;41744;52.404;16.942;2023-01-01T00:35:39;13.13;;;7.00;;
55815;SDS011;41744;52.404;16.942;2023-01-01T00:38:05;12.93;;;6.20;;
55815;SDS011;41744;52.404;16.942;2023-01-01T00:40:31;12.45;;;4.68;;
55815;SDS011;41744;52.404;16.942;2023-01-01T00:42:57;9.80;;;4.50;;
55815;SDS011;41744;52.404;16.942;2023-01-01T00:45:23;10.02;;;4.63;;
55815;SDS011;41744;52.404;16.942;2023-01-01T00:47:50;9.05;;;4.25;;
55815;SDS011;41744;52.404;16.942;2023-01-01T00:50:17;10.18;;;4.10;;
55815;SDS011;41744;52.404;16.942;2023-01-01T00:52:43;7.72;;;3.30;;
55815;SDS011;41744;52.404;16.942;2023-01-01T00:55:09;8.23;;;3.70;;
55815;SDS011;41744;52.404;16.942;2023-01-01T00:57:36;8.38;;;2.72;;
55815;SDS011;41744;52.404;16.942;2023-01-01T01:00:02;6.40;;;3.00;;
55815;SDS011;41744;52.404;16.942;2023-01-01T01:02:29;8.70;;;2.60;;
55815;SDS011;41744;52.404;16.942;2023-01-01T01:04:55;6.03;;;2.90;;
55815;SDS011;41744;52.404;16.942;2023-01-01T01:07:21;3.60;;;2.30;;
55815;SDS011;41744;52.404;16.942;2023-01-01T01:09:47;4.63;;;2.38;;
55815;SDS011;41744;52.404;16.942;2023-01-01T01:12:13;7.10;;;2.40;;
55815;SDS011;41744;52.404;16.942;2023-01-01T01:14:39;6.22;;;2.13;;
55815;SDS011;41744;52.404;16.942;2023-01-01T01:17:05;4.72;;;2.10;;
55815;SDS011;41744;52.404;16.942;2023-01-01T01:19:31;5.63;;;2.30;;
55815;SDS011;41744;52.404;16.942;2023-01-01T01:21:57;3.58;;;2.00;;
55815;SDS011;41744;52.404;16.942;2023-01-01T01:24:23;9.35;;;2.40;;
55815;SDS011;41744;52.404;16.942;2023-01-01T01:26:49;3.60;;;1.90;;
55815;SDS011;41744;52.404;16.942;2023-01-01T01:29:17;4.20;;;1.90;;
55815;SDS011;41744;52.404;16.942;2023-01-01T01:31:43;3.88;;;1.88;;
55815;SDS011;41744;52.404;16.942;2023-01-01T01:34:09;4.03;;;2.15;;
55815;SDS011;41744;52.404;16.942;2023-01-01T01:36:35;5.32;;;1.98;;
55815;SDS011;41744;52.404;16.942;2023-01-01T01:39:02;5.32;;;2.13;;
55815;SDS011;41744;52.404;16.942;2023-01-01T01:41:28;4.28;;;2.10;;
55815;SDS011;41744;52.404;16.942;2023-01-01T01:43:58;4.15;;;2.20;;
55815;SDS011;41744;52.404;16.942;2023-01-01T01:46:25;4.60;;;2.30;;
55815;SDS011;41744;52.404;16.942;2023-01-01T01:48:54;5.78;;;2.13;;
55815;SDS011;41744;52.404;16.942;2023-01-01T01:51:29;4.85;;;2.00;;
55815;SDS011;41744;52.404;16.942;2023-01-01T01:53:58;4.55;;;2.00;;
55815;SDS011;41744;52.404;16.942;2023-01-01T01:56:28;4.03;;;2.25;;
55815;SDS011;41744;52.404;16.942;2023-01-01T01:58:54;3.97;;;1.88;;
55815;SDS011;41744;52.404;16.942;2023-01-01T02:01:20;4.65;;;2.30;;
55815;SDS011;41744;52.404;16.942;2023-01-01T02:06:12;7.07;;;2.22;;
55815;SDS011;41744;52.404;16.942;2023-01-01T02:08:39;5.20;;;2.10;;
55815;SDS011;41744;52.404;16.942;2023-01-01T02:11:05;5.68;;;2.30;;
55815;SDS011;41744;52.404;16.942;2023-01-01T02:13:31;4.65;;;2.05;;
55815;SDS011;41744;52.404;16.942;2023-01-01T02:18:38;4.95;;;1.88;;
55815;SDS011;41744;52.404;16.942;2023-01-01T02:21:19;4.70;;;2.00;;
55815;SDS011;41744;52.404;16.942;2023-01-01T02:31:53;4.65;;;2.15;;
55815;SDS011;41744;52.404;16.942;2023-01-01T02:34:22;4.10;;;2.22;;
55815;SDS011;41744;52.404;16.942;2023-01-01T02:36:50;4.90;;;2.10;;
55815;SDS011;41744;52.404;16.942;2023-01-01T02:39:21;5.38;;;2.20;;
55815;SDS011;41744;52.404;16.942;2023-01-01T02:41:51;5.20;;;2.13;;
55815;SDS011;41744;52.404;16.942;2023-01-01T02:44:18;5.00;;;2.00;;
55815;SDS011;41744;52.404;16.942;2023-01-01T02:46:46;7.70;;;1.95;;
55815;SDS011;41744;52.404;16.942;2023-01-01T02:49:12;3.83;;;2.00;;
55815;SDS011;41744;52.404;16.942;2023-01-01T02:55:18;6.55;;;2.10;;
55815;SDS011;41744;52.404;16.942;2023-01-01T02:57:45;4.07;;;1.98;;
55815;SDS011;41744;52.404;16.942;2023-01-01T03:00:12;5.57;;;2.17;;
55815;SDS011;41744;52.404;16.942;2023-01-01T03:06:07;5.30;;;2.13;;
55815;SDS011;41744;52.404;16.942;2023-01-01T03:11:33;3.92;;;2.13;;
55815;SDS011;41744;52.404;16.942;2023-01-01T03:14:03;4.13;;;2.15;;
55815;SDS011;41744;52.404;16.942;2023-01-01T03:19:16;3.88;;;1.92;;
55815;SDS011;41744;52.404;16.942;2023-01-01T03:24:38;4.95;;;1.88;;
55815;SDS011;41744;52.404;16.942;2023-01-01T03:27:03;6.20;;;2.40;;
55815;SDS011;41744;52.404;16.942;2023-01-01T03:29:33;6.10;;;2.00;;
55815;SDS011;41744;52.404;16.942;2023-01-01T03:32:00;4.72;;;2.42;;
55815;SDS011;41744;52.404;16.942;2023-01-01T03:34:32;5.95;;;2.50;;
55815;SDS011;41744;52.404;16.942;2023-01-01T03:36:59;4.22;;;2.28;;
55815;SDS011;41744;52.404;16.942;2023-01-01T03:39:32;6.38;;;2.78;;
55815;SDS011;41744;52.404;16.942;2023-01-01T03:42:10;5.38;;;2.67;;
55815;SDS011;41744;52.404;16.942;2023-01-01T03:44:45;6.70;;;2.80;;
55815;SDS011;41744;52.404;16.942;2023-01-01T03:47:12;8.23;;;2.40;;
55815;SDS011;41744;52.404;16.942;2023-01-01T03:49:38;6.68;;;2.67;;
55815;SDS011;41744;52.404;16.942;2023-01-01T04:00:06;7.70;;;3.25;;
55815;SDS011;41744;52.404;16.942;2023-01-01T04:02:36;8.23;;;2.88;;
55815;SDS011;41744;52.404;16.942;2023-01-01T04:05:03;7.38;;;3.08;;
55815;SDS011;41744;52.404;16.942;2023-01-01T04:07:31;5.85;;;3.03;;
55815;SDS011;41744;52.404;16.942;2023-01-01T04:09:58;5.22;;;2.97;;
55815;SDS011;41744;52.404;16.942;2023-01-01T04:12:25;8.80;;;3.50;;
55815;SDS011;41744;52.404;16.942;2023-01-01T04:14:52;10.57;;;3.03;;
55815;SDS011;41744;52.404;16.942;2023-01-01T04:17:18;8.77;;;3.53;;
55815;SDS011;41744;52.404;16.942;2023-01-01T04:19:44;7.75;;;3.72;;
55815;SDS011;41744;52.404;16.942;2023-01-01T04:22:10;7.57;;;3.08;;
55815;SDS011;41744;52.404;16.942;2023-01-01T04:24:36;7.93;;;3.58;;
55815;SDS011;41744;52.404;16.942;2023-01-01T04:27:02;6.93;;;3.28;;
55815;SDS011;41744;52.404;16.942;2023-01-01T04:29:28;9.55;;;3.67;;
55815;SDS011;41744;52.404;16.942;2023-01-01T04:31:54;8.10;;;3.50;;
55815;SDS011;41744;52.404;16.942;2023-01-01T04:34:20;8.43;;;4.78;;
55815;SDS011;41744;52.404;16.942;2023-01-01T04:36:46;10.85;;;4.22;;
55815;SDS011;41744;52.404;16.942;2023-01-01T04:39:12;7.25;;;3.92;;
55815;SDS011;41744;52.404;16.942;2023-01-01T04:41:38;8.10;;;4.53;;
55815;SDS011;41744;52.404;16.942;2023-01-01T04:44:04;9.02;;;4.20;;
55815;SDS011;41744;52.404;16.942;2023-01-01T04:46:30;9.57;;;4.13;;
55815;SDS011;41744;52.404;16.942;2023-01-01T04:48:56;8.35;;;4.13;;
55815;SDS011;41744;52.404;16.942;2023-01-01T04:51:22;8.82;;;4.32;;
55815;SDS011;41744;52.404;16.942;2023-01-01T04:53:48;9.93;;;4.05;;
55815;SDS011;41744;52.404;16.942;2023-01-01T04:56:19;10.05;;;4.22;;
55815;SDS011;41744;52.404;16.942;2023-01-01T04:58:45;10.68;;;4.32;;
55815;SDS011;41744;52.404;16.942;2023-01-01T05:01:22;10.13;;;4.10;;
55815;SDS011;41744;52.404;16.942;2023-01-01T05:03:48;10.23;;;4.53;;
55815;SDS011;41744;52.404;16.942;2023-01-01T05:06:15;9.90;;;4.45;;
55815;SDS011;41744;52.404;16.942;2023-01-01T05:08:42;8.25;;;4.00;;
55815;SDS011;41744;52.404;16.942;2023-01-01T05:11:12;8.40;;;3.83;;
55815;SDS011;41744;52.404;16.942;2023-01-01T05:13:39;11.23;;;4.20;;
55815;SDS011;41744;52.404;16.942;2023-01-01T05:16:06;14.00;;;4.07;;
55815;SDS011;41744;52.404;16.942;2023-01-01T05:18:33;6.88;;;3.63;;
55815;SDS011;41744;52.404;16.942;2023-01-01T05:21:00;7.15;;;3.92;;
55815;SDS011;41744;52.404;16.942;2023-01-01T05:23:27;7.32;;;3.85;;
55815;SDS011;41744;52.404;16.942;2023-01-01T05:25:53;8.88;;;3.50;;
55815;SDS011;41744;52.404;16.942;2023-01-01T05:28:19;7.13;;;3.58;;
55815;SDS011;41744;52.404;16.942;2023-01-01T05:30:45;10.50;;;4.07;;
55815;SDS011;41744;52.404;16.942;2023-01-01T05:33:11;10.25;;;3.33;;
55815;SDS011;41744;52.404;16.942;2023-01-01T05:35:37;5.68;;;3.13;;
55815;SDS011;41744;52.404;16.942;2023-01-01T05:38:03;6.50;;;3.22;;
55815;SDS011;41744;52.404;16.942;2023-01-01T05:40:29;7.35;;;3.08;;
55815;SDS011;41744;52.404;16.942;2023-01-01T05:42:55;6.13;;;3.22;;
55815;SDS011;41744;52.404;16.942;2023-01-01T05:45:21;6.00;;;3.08;;
55815;SDS011;41744;52.404;16.942;2023-01-01T05:47:48;7.93;;;3.42;;
55815;SDS011;41744;52.404;16.942;2023-01-01T05:50:14;6.00;;;3.00;;
55815;SDS011;41744;52.404;16.942;2023-01-01T05:52:40;7.05;;;3.53;;
55815;SDS011;41744;52.404;16.942;2023-01-01T05:55:06;6.75;;;2.85;;
55815;SDS011;41744;52.404;16.942;2023-01-01T05:57:32;8.25;;;3.20;;
55815;SDS011;41744;52.404;16.942;2023-01-01T05:59:58;11.65;;;3.42;;
55815;SDS011;41744;52.404;16.942;2023-01-01T06:02:24;8.88;;;3.03;;
55815;SDS011;41744;52.404;16.942;2023-01-01T06:04:50;8.20;;;2.83;;
55815;SDS011;41744;52.404;16.942;2023-01-01T06:07:16;6.65;;;2.85;;
55815;SDS011;41744;52.404;16.942;2023-01-01T06:09:42;6.10;;;2.72;;
55815;SDS011;41744;52.404;16.942;2023-01-01T06:12:08;7.43;;;3.10;;
55815;SDS011;41744;52.404;16.942;2023-01-01T06:14:34;9.32;;;2.92;;
55815;SDS011;41744;52.404;16.942;2023-01-01T06:17:00;4.85;;;2.63;;
55815;SDS011;41744;52.404;16.942;2023-01-01T06:19:26;7.28;;;3.10;;
55815;SDS011;41744;52.404;16.942;2023-01-01T06:21:52;8.48;;;4.15;;
55815;SDS011;41744;52.404;16.942;2023-01-01T06:24:18;6.55;;;2.80;;
55815;SDS011;41744;52.404;16.942;2023-01-01T06:26:44;8.68;;;3.20;;
55815;SDS011;41744;52.404;16.942;2023-01-01T06:29:10;5.85;;;2.72;;
55815;SDS011;41744;52.404;16.942;2023-01-01T06:31:36;6.72;;;2.50;;
55815;SDS011;41744;52.404;16.942;2023-01-01T06:34:02;5.78;;;2.45;;
55815;SDS011;41744;52.404;16.942;2023-01-01T06:36:28;6.53;;;2.40;;
55815;SDS011;41744;52.404;16.942;2023-01-01T06:38:55;6.13;;;2.65;;
55815;SDS011;41744;52.404;16.942;2023-01-01T06:41:23;7.13;;;2.50;;
55815;SDS011;41744;52.404;16.942;2023-01-01T06:43:49;4.40;;;2.35;;
55815;SDS011;41744;52.404;16.942;2023-01-01T06:46:17;9.13;;;2.50;;
55815;SDS011;41744;52.404;16.942;2023-01-01T06:48:43;8.00;;;2.30;;
55815;SDS011;41744;52.404;16.942;2023-01-01T06:51:11;4.72;;;2.17;;
55815;SDS011;41744;52.404;16.942;2023-01-01T06:53:37;9.68;;;2.63;;
55815;SDS011;41744;52.404;16.942;2023-01-01T06:56:03;5.22;;;2.38;;
55815;SDS011;41744;52.404;16.942;2023-01-01T06:58:29;5.13;;;2.42;;
55815;SDS011;41744;52.404;16.942;2023-01-01T07:01:02;6.22;;;2.60;;
55815;SDS011;41744;52.404;16.942;2023-01-01T07:03:29;4.88;;;2.45;;
55815;SDS011;41744;52.404;16.942;2023-01-01T07:05:55;6.65;;;2.33;;
55815;SDS011;41744;52.404;16.942;2023-01-01T07:08:21;5.78;;;2.50;;
55815;SDS011;41744;52.404;16.942;2023-01-01T07:10:47;5.95;;;2.70;;
55815;SDS011;41744;52.404;16.942;2023-01-01T07:13:13;7.75;;;2.58;;
55815;SDS011;41744;52.404;16.942;2023-01-01T07:15:39;3.83;;;2.30;;
55815;SDS011;41744;52.404;16.942;2023-01-01T07:18:05;12.65;;;2.60;;
55815;SDS011;41744;52.404;16.942;2023-01-01T07:20:31;5.25;;;2.17;;
55815;SDS011;41744;52.404;16.942;2023-01-01T07:22:57;7.07;;;2.83;;
55815;SDS011;41744;52.404;16.942;2023-01-01T07:25:26;11.50;;;4.35;;
55815;SDS011;41744;52.404;16.942;2023-01-01T07:27:52;5.07;;;2.15;;
55815;SDS011;41744;52.404;16.942;2023-01-01T07:30:18;4.90;;;1.80;;
55815;SDS011;41744;52.404;16.942;2023-01-01T07:32:44;8.07;;;2.30;;
55815;SDS011;41744;52.404;16.942;2023-01-01T07:35:10;5.40;;;1.80;;
55815;SDS011;41744;52.404;16.942;2023-01-01T07:37:36;14.50;;;2.40;;
55815;SDS011;41744;52.404;16.942;2023-01-01T07:40:02;6.75;;;2.10;;
55815;SDS011;41744;52.404;16.942;2023-01-01T07:42:28;7.93;;;2.20;;
55815;SDS011;41744;52.404;16.942;2023-01-01T07:44:54;7.10;;;2.40;;
55815;SDS011;41744;52.404;16.942;2023-01-01T07:47:21;9.35;;;2.58;;
55815;SDS011;41744;52.404;16.942;2023-01-01T07:49:47;6.38;;;1.98;;
55815;SDS011;41744;52.404;16.942;2023-01-01T07:52:13;7.72;;;1.98;;
55815;SDS011;41744;52.404;16.942;2023-01-01T07:54:39;8.32;;;2.33;;
55815;SDS011;41744;52.404;16.942;2023-01-01T07:57:05;6.93;;;2.40;;
55815;SDS011;41744;52.404;16.942;2023-01-01T07:59:31;8.55;;;2.13;;
55815;SDS011;41744;52.404;16.942;2023-01-01T08:01:57;5.43;;;1.92;;
55815;SDS011;41744;52.404;16.942;2023-01-01T08:04:24;8.85;;;2.10;;
55815;SDS011;41744;52.404;16.942;2023-01-01T08:06:51;7.68;;;1.95;;
55815;SDS011;41744;52.404;16.942;2023-01-01T08:09:17;5.40;;;2.17;;
55815;SDS011;41744;52.404;16.942;2023-01-01T08:11:43;6.15;;;2.05;;
55815;SDS011;41744;52.404;16.942;2023-01-01T08:14:09;11.25;;;2.40;;
55815;SDS011;41744;52.404;16.942;2023-01-01T08:16:35;5.15;;;2.30;;
55815;SDS011;41744;52.404;16.942;2023-01-01T08:19:01;9.52;;;1.98;;
55815;SDS011;41744;52.404;16.942;2023-01-01T08:21:27;6.72;;;2.10;;
55815;SDS011;41744;52.404;16.942;2023-01-01T08:23:54;11.80;;;2.20;;
55815;SDS011;41744;52.404;16.942;2023-01-01T08:26:30;5.22;;;2.20;;
55815;SDS011;41744;52.404;16.942;2023-01-01T08:28:56;9.73;;;2.25;;
55815;SDS011;41744;52.404;16.942;2023-01-01T08:31:23;4.85;;;2.10;;
55815;SDS011;41744;52.404;16.942;2023-01-01T08:33:49;5.70;;;2.30;;
55815;SDS011;41744;52.404;16.942;2023-01-01T08:36:15;6.45;;;2.22;;
55815;SDS011;41744;52.404;16.942;2023-01-01T08:38:42;3.88;;;2.10;;
55815;SDS011;41744;52.404;16.942;2023-01-01T08:41:08;6.85;;;2.00;;
55815;SDS011;41744;52.404;16.942;2023-01-01T08:43:34;5.30;;;2.08;;
55815;SDS011;41744;52.404;16.942;2023-01-01T08:46:00;5.97;;;2.35;;
55815;SDS011;41744;52.404;16.942;2023-01-01T08:48:26;4.63;;;1.98;;
55815;SDS011;41744;52.404;16.942;2023-01-01T08:50:53;9.55;;;2.35;;
55815;SDS011;41744;52.404;16.942;2023-01-01T08:53:19;7.78;;;2.45;;
55815;SDS011;41744;52.404;16.942;2023-01-01T08:55:54;5.38;;;2.30;;
55815;SDS011;41744;52.404;16.942;2023-01-01T08:58:20;8.75;;;2.78;;
55815;SDS011;41744;52.404;16.942;2023-01-01T09:00:46;8.23;;;2.38;;
55815;SDS011;41744;52.404;16.942;2023-01-01T09:03:12;7.32;;;2.40;;
55815;SDS011;41744;52.404;16.942;2023-01-01T09:05:38;7.45;;;2.50;;
55815;SDS011;41744;52.404;16.942;2023-01-01T09:08:09;4.93;;;2.22;;
55815;SDS011;41744;52.404;16.942;2023-01-01T09:10:35;9.10;;;2.45;;
55815;SDS011;41744;52.404;16.942;2023-01-01T09:13:01;5.47;;;2.38;;
55815;SDS011;41744;52.404;16.942;2023-01-01T09:15:27;13.27;;;2.35;;
55815;SDS011;41744;52.404;16.942;2023-01-01T09:17:53;6.90;;;2.22;;
55815;SDS011;41744;52.404;16.942;2023-01-01T09:20:19;7.35;;;2.45;;
55815;SDS011;41744;52.404;16.942;2023-01-01T09:22:45;7.00;;;2.38;;
55815;SDS011;41744;52.404;16.942;2023-01-01T09:25:11;6.82;;;2.25;;
55815;SDS011;41744;52.404;16.942;2023-01-01T09:27:37;9.73;;;2.30;;
55815;SDS011;41744;52.404;16.942;2023-01-01T09:30:04;6.18;;;2.03;;
55815;SDS011;41744;52.404;16.942;2023-01-01T09:32:30;6.20;;;2.28;;
55815;SDS011;41744;52.404;16.942;2023-01-01T09:34:56;8.68;;;2.83;;
55815;SDS011;41744;52.404;16.942;2023-01-01T09:37:22;9.23;;;2.35;;
55815;SDS011;41744;52.404;16.942;2023-01-01T09:39:48;5.43;;;2.53;;
55815;SDS011;41744;52.404;16.942;2023-01-01T09:49:51;8.38;;;2.25;;
55815;SDS011;41744;52.404;16.942;2023-01-01T09:52:19;8.68;;;2.45;;
55815;SDS011;41744;52.404;16.942;2023-01-01T09:57:11;6.07;;;2.10;;
55815;SDS011;41744;52.404;16.942;2023-01-01T09:59:38;8.40;;;2.42;;
55815;SDS011;41744;52.404;16.942;2023-01-01T10:13:36;6.82;;;2.20;;
55815;SDS011;41744;52.404;16.942;2023-01-01T10:16:02;8.32;;;2.25;;
55815;SDS011;41744;52.404;16.942;2023-01-01T10:18:32;7.20;;;2.70;;
55815;SDS011;41744;52.404;16.942;2023-01-01T10:23:31;9.75;;;2.58;;
55815;SDS011;41744;52.404;16.942;2023-01-01T10:25:59;8.75;;;2.60;;
55815;SDS011;41744;52.404;16.942;2023-01-01T10:28:42;9.93;;;2.50;;
55815;SDS011;41744;52.404;16.942;2023-01-01T10:33:36;9.50;;;2.33;;
55815;SDS011;41744;52.404;16.942;2023-01-01T10:36:02;6.30;;;2.80;;
55815;SDS011;41744;52.404;16.942;2023-01-01T10:38:34;11.43;;;2.60;;
55815;SDS011;41744;52.404;16.942;2023-01-01T10:41:08;9.63;;;2.92;;
55815;SDS011;41744;52.404;16.942;2023-01-01T10:43:35;7.07;;;2.50;;
55815;SDS011;41744;52.404;16.942;2023-01-01T10:46:03;7.82;;;2.75;;
55815;SDS011;41744;52.404;16.942;2023-01-01T10:48:30;8.60;;;2.85;;
55815;SDS011;41744;52.404;16.942;2023-01-01T10:51:01;5.72;;;2.60;;
55815;SDS011;41744;52.404;16.942;2023-01-01T10:53:37;8.18;;;2.92;;
55815;SDS011;41744;52.404;16.942;2023-01-01T10:56:20;7.78;;;2.95;;
55815;SDS011;41744;52.404;16.942;2023-01-01T10:59:07;5.93;;;2.50;;
55815;SDS011;41744;52.404;16.942;2023-01-01T11:01:35;8.13;;;2.70;;
55815;SDS011;41744;52.404;16.942;2023-01-01T11:04:15;7.28;;;2.78;;
55815;SDS011;41744;52.404;16.942;2023-01-01T11:06:44;6.57;;;2.88;;
55815;SDS011;41744;52.404;16.942;2023-01-01T11:11:44;10.07;;;3.20;;
55815;SDS011;41744;52.404;16.942;2023-01-01T11:14:20;6.18;;;2.30;;
55815;SDS011;41744;52.404;16.942;2023-01-01T11:16:47;6.18;;;2.83;;
55815;SDS011;41744;52.404;16.942;2023-01-01T11:19:18;7.22;;;2.35;;
55815;SDS011;41744;52.404;16.942;2023-01-01T11:21:45;8.93;;;2.95;;
55815;SDS011;41744;52.404;16.942;2023-01-01T11:24:19;6.57;;;2.70;;
55815;SDS011;41744;52.404;16.942;2023-01-01T11:26:45;7.85;;;3.00;;
55815;SDS011;41744;52.404;16.942;2023-01-01T11:31:40;10.43;;;2.90;;
55815;SDS011;41744;52.404;16.942;2023-01-01T11:34:21;5.72;;;3.08;;
55815;SDS011;41744;52.404;16.942;2023-01-01T11:36:50;6.72;;;2.70;;
55815;SDS011;41744;52.404;16.942;2023-01-01T11:41:46;15.57;;;6.25;;
55815;SDS011;41744;52.404;16.942;2023-01-01T11:44:12;8.63;;;3.10;;
55815;SDS011;41744;52.404;16.942;2023-01-01T11:46:47;7.65;;;3.30;;
55815;SDS011;41744;52.404;16.942;2023-01-01T11:49:14;5.70;;;2.75;;
55815;SDS011;41744;52.404;16.942;2023-01-01T11:51:42;7.18;;;2.92;;
55815;SDS011;41744;52.404;16.942;2023-01-01T11:54:10;8.82;;;3.60;;
55815;SDS011;41744;52.404;16.942;2023-01-01T11:56:36;9.90;;;3.20;;
55815;SDS011;41744;52.404;16.942;2023-01-01T11:59:15;7.90;;;2.75;;
55815;SDS011;41744;52.404;16.942;2023-01-01T12:01:44;8.20;;;3.22;;
55815;SDS011;41744;52.404;16.942;2023-01-01T12:06:58;12.40;;;3.35;;
55815;SDS011;41744;52.404;16.942;2023-01-01T12:09:29;8.57;;;3.33;;
55815;SDS011;41744;52.404;16.942;2023-01-01T12:12:15;15.30;;;3.50;;
55815;SDS011;41744;52.404;16.942;2023-01-01T12:14:48;8.38;;;3.25;;
55815;SDS011;41744;52.404;16.942;2023-01-01T12:17:19;7.47;;;2.80;;
55815;SDS011;41744;52.404;16.942;2023-01-01T12:19:54;5.80;;;3.10;;
55815;SDS011;41744;52.404;16.942;2023-01-01T12:22:21;8.68;;;3.20;;
55815;SDS011;41744;52.404;16.942;2023-01-01T12:24:47;6.90;;;2.97;;
55815;SDS011;41744;52.404;16.942;2023-01-01T12:27:15;9.68;;;3.30;;
55815;SDS011;41744;52.404;16.942;2023-01-01T12:42:56;10.98;;;3.22;;
55815;SDS011;41744;52.404;16.942;2023-01-01T12:48:00;10.50;;;3.97;;
55815;SDS011;41744;52.404;16.942;2023-01-01T12:55:55;8.48;;;3.22;;
55815;SDS011;41744;52.404;16.942;2023-01-01T12:58:27;12.18;;;4.90;;
55815;SDS011;41744;52.404;16.942;2023-01-01T13:00:58;8.10;;;3.00;;
55815;SDS011;41744;52.404;16.942;2023-01-01T13:03:27;9.30;;;3.90;;
55815;SDS011;41744;52.404;16.942;2023-01-01T13:05:55;9.05;;;3.45;;
55815;SDS011;41744;52.404;16.942;2023-01-01T13:08:22;7.63;;;3.10;;
55815;SDS011;41744;52.404;16.942;2023-01-01T13:10:49;7.70;;;3.38;;
55815;SDS011;41744;52.404;16.942;2023-01-01T13:13:16;8.45;;;3.63;;
55815;SDS011;41744;52.404;16.942;2023-01-01T13:15:51;9.00;;;3.63;;
55815;SDS011;41744;52.404;16.942;2023-01-01T13:18:19;7.10;;;3.50;;
55815;SDS011;41744;52.404;16.942;2023-01-01T13:28:38;12.00;;;3.33;;
55815;SDS011;41744;52.404;16.942;2023-01-01T13:31:04;10.20;;;3.92;;
55815;SDS011;41744;52.404;16.942;2023-01-01T13:33:30;9.23;;;3.55;;
55815;SDS011;41744;52.404;16.942;2023-01-01T13:41:31;9.40;;;3.90;;
55815;SDS011;41744;52.404;16.942;2023-01-01T13:49:20;10.88;;;4.03;;
55815;SDS011;41744;52.404;16.942;2023-01-01T13:51:51;7.85;;;3.70;;
55815;SDS011;41744;52.404;16.942;2023-01-01T13:59:22;13.98;;;4.18;;
55815;SDS011;41744;52.404;16.942;2023-01-01T14:04:34;9.32;;;3.83;;
55815;SDS011;41744;52.404;16.942;2023-01-01T14:07:09;9.05;;;3.90;;
55815;SDS011;41744;52.404;16.942;2023-01-01T14:09:39;9.30;;;4.05;;
55815;SDS011;41744;52.404;16.942;2023-01-01T14:12:09;10.57;;;3.90;;
55815;SDS011;41744;52.404;16.942;2023-01-01T14:17:34;9.95;;;4.13;;
55815;SDS011;41744;52.404;16.942;2023-01-01T14:20:03;12.95;;;4.13;;
55815;SDS011;41744;52.404;16.942;2023-01-01T14:22:29;9.73;;;4.43;;
55815;SDS011;41744;52.404;16.942;2023-01-01T14:24:56;12.05;;;4.55;;
55815;SDS011;41744;52.404;16.942;2023-01-01T14:27:22;12.77;;;4.38;;
55815;SDS011;41744;52.404;16.942;2023-01-01T14:29:49;11.90;;;4.28;;
55815;SDS011;41744;52.404;16.942;2023-01-01T14:32:22;11.00;;;4.32;;
55815;SDS011;41744;52.404;16.942;2023-01-01T14:34:59;10.55;;;4.63;;
55815;SDS011;41744;52.404;16.942;2023-01-01T14:37:30;8.15;;;3.90;;
55815;SDS011;41744;52.404;16.942;2023-01-01T14:40:16;12.38;;;4.25;;
55815;SDS011;41744;52.404;16.942;2023-01-01T14:42:44;9.45;;;3.78;;
55815;SDS011;41744;52.404;16.942;2023-01-01T14:45:16;8.32;;;3.83;;
55815;SDS011;41744;52.404;16.942;2023-01-01T14:47:49;15.40;;;4.68;;
55815;SDS011;41744;52.404;16.942;2023-01-01T14:50:23;15.18;;;4.63;;
55815;SDS011;41744;52.404;16.942;2023-01-01T14:52:51;12.52;;;4.25;;
55815;SDS011;41744;52.404;16.942;2023-01-01T14:55:20;9.43;;;4.65;;
55815;SDS011;41744;52.404;16.942;2023-01-01T14:57:47;14.00;;;4.80;;
55815;SDS011;41744;52.404;16.942;2023-01-01T15:00:28;11.93;;;4.70;;
55815;SDS011;41744;52.404;16.942;2023-01-01T15:02:54;12.20;;;4.80;;
55815;SDS011;41744;52.404;16.942;2023-01-01T15:05:30;13.68;;;4.50;;
55815;SDS011;41744;52.404;16.942;2023-01-01T15:07:57;10.75;;;3.97;;
55815;SDS011;41744;52.404;16.942;2023-01-01T15:10:27;12.90;;;4.13;;
55815;SDS011;41744;52.404;16.942;2023-01-01T15:12:53;11.02;;;4.65;;
55815;SDS011;41744;52.404;16.942;2023-01-01T15:23:34;10.52;;;4.53;;
55815;SDS011;41744;52.404;16.942;2023-01-01T15:26:01;17.08;;;4.97;;
55815;SDS011;41744;52.404;16.942;2023-01-01T15:28:31;13.35;;;4.55;;
55815;SDS011;41744;52.404;16.942;2023-01-01T15:30:57;14.18;;;4.75;;
55815;SDS011;41744;52.404;16.942;2023-01-01T15:33:23;12.73;;;4.43;;
55815;SDS011;41744;52.404;16.942;2023-01-01T15:35:50;12.70;;;5.80;;
55815;SDS011;41744;52.404;16.942;2023-01-01T15:38:23;12.57;;;4.95;;
55815;SDS011;41744;52.404;16.942;2023-01-01T15:40:50;12.57;;;4.88;;
55815;SDS011;41744;52.404;16.942;2023-01-01T15:45:52;15.52;;;5.50;;
55815;SDS011;41744;52.404;16.942;2023-01-01T15:55:43;16.02;;;5.68;;
55815;SDS011;41744;52.404;16.942;2023-01-01T15:58:17;15.95;;;6.30;;
55815;SDS011;41744;52.404;16.942;2023-01-01T16:00:50;13.93;;;6.55;;
55815;SDS011;41744;52.404;16.942;2023-01-01T16:03:19;16.77;;;6.30;;
55815;SDS011;41744;52.404;16.942;2023-01-01T16:05:46;14.35;;;5.82;;
55815;SDS011;41744;52.404;16.942;2023-01-01T16:08:14;16.15;;;5.45;;
55815;SDS011;41744;52.404;16.942;2023-01-01T16:10:41;17.40;;;5.75;;
55815;SDS011;41744;52.404;16.942;2023-01-01T16:13:07;17.40;;;6.07;;
55815;SDS011;41744;52.404;16.942;2023-01-01T16:15:34;16.42;;;6.10;;
55815;SDS011;41744;52.404;16.942;2023-01-01T16:18:01;17.55;;;6.32;;
55815;SDS011;41744;52.404;16.942;2023-01-01T16:20:27;18.58;;;6.80;;
55815;SDS011;41744;52.404;16.942;2023-01-01T16:22:53;18.40;;;6.85;;
55815;SDS011;41744;52.404;16.942;2023-01-01T16:25:20;17.60;;;7.00;;
55815;SDS011;41744;52.404;16.942;2023-01-01T16:27:47;19.90;;;7.15;;
55815;SDS011;41744;52.404;16.942;2023-01-01T16:30:13;17.83;;;7.32;;
55815;SDS011;41744;52.404;16.942;2023-01-01T16:32:40;18.65;;;7.03;;
55815;SDS011;41744;52.404;16.942;2023-01-01T16:35:10;15.38;;;7.00;;
55815;SDS011;41744;52.404;16.942;2023-01-01T16:37:37;15.88;;;7.15;;
55815;SDS011;41744;52.404;16.942;2023-01-01T16:40:03;21.92;;;7.10;;
55815;SDS011;41744;52.404;16.942;2023-01-01T16:42:31;20.92;;;7.57;;
55815;SDS011;41744;52.404;16.942;2023-01-01T16:44:57;21.50;;;7.97;;
55815;SDS011;41744;52.404;16.942;2023-01-01T16:47:23;23.10;;;10.10;;
55815;SDS011;41744;52.404;16.942;2023-01-01T16:49:49;20.27;;;9.30;;
55815;SDS011;41744;52.404;16.942;2023-01-01T16:52:15;23.83;;;8.63;;
55815;SDS011;41744;52.404;16.942;2023-01-01T16:54:42;17.83;;;7.78;;
55815;SDS011;41744;52.404;16.942;2023-01-01T16:57:08;19.27;;;7.60;;
55815;SDS011;41744;52.404;16.942;2023-01-01T16:59:34;17.52;;;7.55;;